sensor_id;sensor_type;location;lat;lon;timestamp;P1;durP1;ratioP1;P2;durP2;ratioP2
2866;SDS011;1441;48.886;8.728;2022-07-01T00:00:31;1.27;;;0.60;;
2866;SDS011;1441;48.886;8.728;2022-07-01T00:02:57;0.70;;;0.60;;
2866;SDS011;1441;48.886;8.728;2022-07-01T00:05:22;3.93;;;0.70;;
2866;SDS011;1441;48.886;8.728;2022-07-01T00:07:48;1.17;;;0.67;;
2866;SDS011;1441;48.886;8.728;2022-07-01T00:10:14;0.73;;;0.60;;
2866;SDS011;1441;48.886;8.728;2022-07-01T00:12:40;1.27;;;0.50;;
2866;SDS011;1441;48.886;8.728;2022-07-01T00:15:06;2.27;;;0.47;;
2866;SDS011;1441;48.886;8.728;2022-07-01T00:17:32;1.07;;;0.50;;
2866;SDS011;1441;48.886;8.728;2022-07-01T00:19:58;3.60;;;0.63;;
2866;SDS011;1441;48.886;8.728;2022-07-01T00:22:24;3.23;;;0.70;;
2866;SDS011;1441;48.886;8.728;2022-07-01T00:24:50;2.80;;;0.70;;
2866;SDS011;1441;48.886;8.728;2022-07-01T00:27:16;0.60;;;0.60;;
2866;SDS011;1441;48.886;8.728;2022-07-01T00:29:41;1.10;;;0.80;;
2866;SDS011;1441;48.886;8.728;2022-07-01T00:32:07;0.77;;;0.50;;
2866;SDS011;1441;48.886;8.728;2022-07-01T00:34:33;0.97;;;0.60;;
2866;SDS011;1441;48.886;8.728;2022-07-01T00:36:58;2.17;;;0.60;;
2866;SDS011;1441;48.886;8.728;2022-07-01T00:39:24;2.77;;;0.80;;
2866;SDS011;1441;48.886;8.728;2022-07-01T00:41:50;0.83;;;0.50;;
2866;SDS011;1441;48.886;8.728;2022-07-01T00:44:17;1.00;;;0.67;;
2866;SDS011;1441;48.886;8.728;2022-07-01T00:46:43;0.87;;;0.50;;
2866;SDS011;1441;48.886;8.728;2022-07-01T00:49:09;1.80;;;0.57;;
2866;SDS011;1441;48.886;8.728;2022-07-01T00:51:35;1.73;;;0.70;;
2866;SDS011;1441;48.886;8.728;2022-07-01T00:54:01;2.27;;;0.60;;
2866;SDS011;1441;48.886;8.728;2022-07-01T00:56:27;2.60;;;0.60;;
2866;SDS011;1441;48.886;8.728;2022-07-01T00:58:53;1.30;;;0.50;;
2866;SDS011;1441;48.886;8.728;2022-07-01T01:01:20;0.80;;;0.80;;
2866;SDS011;1441;48.886;8.728;2022-07-01T01:03:47;2.87;;;0.70;;
2866;SDS011;1441;48.886;8.728;2022-07-01T01:06:13;2.00;;;0.50;;
2866;SDS011;1441;48.886;8.728;2022-07-01T01:08:40;0.50;;;0.50;;
2866;SDS011;1441;48.886;8.728;2022-07-01T01:11:06;0.97;;;0.57;;
2866;SDS011;1441;48.886;8.728;2022-07-01T01:13:32;4.93;;;0.70;;
2866;SDS011;1441;48.886;8.728;2022-07-01T01:15:58;1.07;;;0.60;;
2866;SDS011;1441;48.886;8.728;2022-07-01T01:18:24;0.50;;;0.43;;
2866;SDS011;1441;48.886;8.728;2022-07-01T01:20:51;1.53;;;0.60;;
2866;SDS011;1441;48.886;8.728;2022-07-01T01:23:17;1.10;;;0.50;;
2866;SDS011;1441;48.886;8.728;2022-07-01T01:25:43;2.13;;;0.60;;
2866;SDS011;1441;48.886;8.728;2022-07-01T01:28:11;1.40;;;0.57;;
2866;SDS011;1441;48.886;8.728;2022-07-01T01:30:37;0.70;;;0.70;;
2866;SDS011;1441;48.886;8.728;2022-07-01T01:33:02;1.80;;;0.63;;
2866;SDS011;1441;48.886;8.728;2022-07-01T01:35:28;11.50;;;1.07;;
2866;SDS011;1441;48.886;8.728;2022-07-01T01:37:54;1.73;;;0.50;;
2866;SDS011;1441;48.886;8.728;2022-07-01T01:40:19;2.30;;;0.90;;
2866;SDS011;1441;48.886;8.728;2022-07-01T01:42:45;1.80;;;0.60;;
2866;SDS011;1441;48.886;8.728;2022-07-01T01:45:11;1.23;;;0.63;;
2866;SDS011;1441;48.886;8.728;2022-07-01T01:47:37;2.20;;;0.80;;
2866;SDS011;1441;48.886;8.728;2022-07-01T01:50:07;1.17;;;0.70;;
2866;SDS011;1441;48.886;8.728;2022-07-01T01:52:33;1.37;;;0.80;;
2866;SDS011;1441;48.886;8.728;2022-07-01T01:54:59;4.67;;;1.23;;
2866;SDS011;1441;48.886;8.728;2022-07-01T01:57:25;7.57;;;0.80;;
2866;SDS011;1441;48.886;8.728;2022-07-01T01:59:51;2.10;;;0.80;;
2866;SDS011;1441;48.886;8.728;2022-07-01T02:02:17;1.13;;;0.80;;
2866;SDS011;1441;48.886;8.728;2022-07-01T02:04:42;0.80;;;0.63;;
2866;SDS011;1441;48.886;8.728;2022-07-01T02:07:08;1.13;;;0.83;;
2866;SDS011;1441;48.886;8.728;2022-07-01T02:09:34;0.70;;;0.70;;
2866;SDS011;1441;48.886;8.728;2022-07-01T02:12:00;1.10;;;0.80;;
2866;SDS011;1441;48.886;8.728;2022-07-01T02:14:26;0.87;;;0.80;;
2866;SDS011;1441;48.886;8.728;2022-07-01T02:16:52;2.60;;;0.70;;
2866;SDS011;1441;48.886;8.728;2022-07-01T02:19:18;0.80;;;0.80;;
2866;SDS011;1441;48.886;8.728;2022-07-01T02:21:43;2.40;;;1.00;;
2866;SDS011;1441;48.886;8.728;2022-07-01T02:24:09;1.83;;;1.00;;
2866;SDS011;1441;48.886;8.728;2022-07-01T02:26:34;0.80;;;0.80;;
2866;SDS011;1441;48.886;8.728;2022-07-01T02:29:00;1.13;;;0.60;;
2866;SDS011;1441;48.886;8.728;2022-07-01T02:31:26;1.23;;;0.90;;
2866;SDS011;1441;48.886;8.728;2022-07-01T02:33:52;1.10;;;1.00;;
2866;SDS011;1441;48.886;8.728;2022-07-01T02:36:18;3.70;;;0.90;;
2866;SDS011;1441;48.886;8.728;2022-07-01T02:38:43;0.90;;;0.90;;
2866;SDS011;1441;48.886;8.728;2022-07-01T02:41:09;1.20;;;0.80;;
2866;SDS011;1441;48.886;8.728;2022-07-01T02:43:35;1.17;;;1.00;;
2866;SDS011;1441;48.886;8.728;2022-07-01T02:46:01;2.97;;;1.00;;
2866;SDS011;1441;48.886;8.728;2022-07-01T02:48:27;1.47;;;1.10;;
2866;SDS011;1441;48.886;8.728;2022-07-01T02:50:53;5.03;;;1.00;;
2866;SDS011;1441;48.886;8.728;2022-07-01T02:53:18;12.53;;;1.20;;
2866;SDS011;1441;48.886;8.728;2022-07-01T02:55:44;1.37;;;0.80;;
2866;SDS011;1441;48.886;8.728;2022-07-01T02:58:09;0.90;;;0.90;;
2866;SDS011;1441;48.886;8.728;2022-07-01T03:00:35;1.00;;;1.00;;
2866;SDS011;1441;48.886;8.728;2022-07-01T03:03:02;4.20;;;1.13;;
2866;SDS011;1441;48.886;8.728;2022-07-01T03:05:28;1.83;;;0.90;;
2866;SDS011;1441;48.886;8.728;2022-07-01T03:07:53;1.60;;;1.27;;
2866;SDS011;1441;48.886;8.728;2022-07-01T03:10:19;0.80;;;0.80;;
2866;SDS011;1441;48.886;8.728;2022-07-01T03:12:44;2.70;;;1.00;;
2866;SDS011;1441;48.886;8.728;2022-07-01T03:15:14;0.80;;;0.80;;
2866;SDS011;1441;48.886;8.728;2022-07-01T03:17:41;1.17;;;0.80;;
2866;SDS011;1441;48.886;8.728;2022-07-01T03:20:09;3.03;;;0.97;;
2866;SDS011;1441;48.886;8.728;2022-07-01T03:22:37;1.03;;;1.03;;
2866;SDS011;1441;48.886;8.728;2022-07-01T03:25:03;0.90;;;0.70;;
2866;SDS011;1441;48.886;8.728;2022-07-01T03:27:30;1.57;;;1.00;;
2866;SDS011;1441;48.886;8.728;2022-07-01T03:29:56;1.43;;;0.83;;
2866;SDS011;1441;48.886;8.728;2022-07-01T03:32:22;4.30;;;1.13;;
2866;SDS011;1441;48.886;8.728;2022-07-01T03:34:49;0.70;;;0.70;;
2866;SDS011;1441;48.886;8.728;2022-07-01T03:37:17;0.80;;;0.77;;
2866;SDS011;1441;48.886;8.728;2022-07-01T03:39:44;2.20;;;0.80;;
2866;SDS011;1441;48.886;8.728;2022-07-01T03:42:10;0.80;;;0.80;;
2866;SDS011;1441;48.886;8.728;2022-07-01T03:44:36;1.40;;;0.90;;
2866;SDS011;1441;48.886;8.728;2022-07-01T03:47:02;8.23;;;0.90;;
2866;SDS011;1441;48.886;8.728;2022-07-01T03:49:30;1.43;;;0.90;;
2866;SDS011;1441;48.886;8.728;2022-07-01T03:51:56;2.57;;;0.73;;
2866;SDS011;1441;48.886;8.728;2022-07-01T03:54:22;1.27;;;0.80;;
2866;SDS011;1441;48.886;8.728;2022-07-01T03:57:04;3.00;;;0.77;;
2866;SDS011;1441;48.886;8.728;2022-07-01T03:59:32;7.30;;;0.90;;
2866;SDS011;1441;48.886;8.728;2022-07-01T04:02:00;1.37;;;0.83;;
2866;SDS011;1441;48.886;8.728;2022-07-01T04:04:27;1.13;;;0.83;;
2866;SDS011;1441;48.886;8.728;2022-07-01T04:06:53;1.33;;;0.80;;
2866;SDS011;1441;48.886;8.728;2022-07-01T04:09:20;1.30;;;1.00;;
2866;SDS011;1441;48.886;8.728;2022-07-01T04:11:46;1.07;;;0.80;;
2866;SDS011;1441;48.886;8.728;2022-07-01T04:14:13;5.33;;;1.03;;
2866;SDS011;1441;48.886;8.728;2022-07-01T04:16:39;1.80;;;0.80;;
2866;SDS011;1441;48.886;8.728;2022-07-01T04:19:05;1.20;;;0.80;;
2866;SDS011;1441;48.886;8.728;2022-07-01T04:21:31;3.13;;;0.80;;
2866;SDS011;1441;48.886;8.728;2022-07-01T04:24:15;3.20;;;0.70;;
2866;SDS011;1441;48.886;8.728;2022-07-01T04:26:41;1.37;;;0.70;;
2866;SDS011;1441;48.886;8.728;2022-07-01T04:29:07;1.07;;;0.90;;
2866;SDS011;1441;48.886;8.728;2022-07-01T04:31:34;2.73;;;0.70;;
2866;SDS011;1441;48.886;8.728;2022-07-01T04:34:00;0.83;;;0.70;;
2866;SDS011;1441;48.886;8.728;2022-07-01T04:36:26;2.03;;;1.33;;
2866;SDS011;1441;48.886;8.728;2022-07-01T04:38:52;2.33;;;1.20;;
2866;SDS011;1441;48.886;8.728;2022-07-01T04:41:17;3.40;;;1.30;;
2866;SDS011;1441;48.886;8.728;2022-07-01T04:44:01;2.27;;;1.57;;
2866;SDS011;1441;48.886;8.728;2022-07-01T04:46:27;1.70;;;1.60;;
2866;SDS011;1441;48.886;8.728;2022-07-01T04:48:53;3.70;;;1.40;;
2866;SDS011;1441;48.886;8.728;2022-07-01T04:51:19;3.03;;;1.47;;
2866;SDS011;1441;48.886;8.728;2022-07-01T04:53:45;2.03;;;1.60;;
2866;SDS011;1441;48.886;8.728;2022-07-01T04:56:10;1.90;;;1.70;;
2866;SDS011;1441;48.886;8.728;2022-07-01T04:58:36;3.40;;;2.23;;
2866;SDS011;1441;48.886;8.728;2022-07-01T05:01:01;2.50;;;2.17;;
2866;SDS011;1441;48.886;8.728;2022-07-01T05:03:27;4.80;;;2.00;;
2866;SDS011;1441;48.886;8.728;2022-07-01T05:05:53;3.30;;;2.40;;
2866;SDS011;1441;48.886;8.728;2022-07-01T05:08:18;3.23;;;2.83;;
2866;SDS011;1441;48.886;8.728;2022-07-01T05:10:44;4.77;;;2.57;;
2866;SDS011;1441;48.886;8.728;2022-07-01T05:13:09;2.80;;;2.53;;
2866;SDS011;1441;48.886;8.728;2022-07-01T05:15:35;4.10;;;3.07;;
2866;SDS011;1441;48.886;8.728;2022-07-01T05:18:01;2.53;;;2.40;;
2866;SDS011;1441;48.886;8.728;2022-07-01T05:20:45;4.83;;;2.80;;
2866;SDS011;1441;48.886;8.728;2022-07-01T05:23:29;3.23;;;2.93;;
2866;SDS011;1441;48.886;8.728;2022-07-01T05:25:54;3.57;;;2.40;;
2866;SDS011;1441;48.886;8.728;2022-07-01T05:28:20;4.43;;;2.40;;
2866;SDS011;1441;48.886;8.728;2022-07-01T05:30:45;4.10;;;2.80;;
2866;SDS011;1441;48.886;8.728;2022-07-01T05:33:11;10.20;;;3.00;;
2866;SDS011;1441;48.886;8.728;2022-07-01T05:35:36;4.60;;;3.30;;
2866;SDS011;1441;48.886;8.728;2022-07-01T05:38:02;4.20;;;3.47;;
2866;SDS011;1441;48.886;8.728;2022-07-01T05:40:28;3.83;;;3.20;;
2866;SDS011;1441;48.886;8.728;2022-07-01T05:42:53;3.50;;;3.00;;
2866;SDS011;1441;48.886;8.728;2022-07-01T05:45:19;4.00;;;3.07;;
2866;SDS011;1441;48.886;8.728;2022-07-01T05:47:45;4.13;;;2.60;;
2866;SDS011;1441;48.886;8.728;2022-07-01T05:50:11;5.33;;;2.80;;
2866;SDS011;1441;48.886;8.728;2022-07-01T05:52:36;4.33;;;3.00;;
2866;SDS011;1441;48.886;8.728;2022-07-01T05:55:02;3.00;;;2.70;;
2866;SDS011;1441;48.886;8.728;2022-07-01T05:57:28;3.40;;;3.00;;
2866;SDS011;1441;48.886;8.728;2022-07-01T05:59:55;6.23;;;3.43;;
2866;SDS011;1441;48.886;8.728;2022-07-01T06:02:20;4.17;;;3.13;;
2866;SDS011;1441;48.886;8.728;2022-07-01T06:04:46;5.63;;;3.10;;
2866;SDS011;1441;48.886;8.728;2022-07-01T06:07:11;3.70;;;3.27;;
2866;SDS011;1441;48.886;8.728;2022-07-01T06:09:37;3.73;;;3.43;;
2866;SDS011;1441;48.886;8.728;2022-07-01T06:12:03;3.10;;;2.80;;
2866;SDS011;1441;48.886;8.728;2022-07-01T06:14:30;5.13;;;2.97;;
2866;SDS011;1441;48.886;8.728;2022-07-01T06:16:56;5.90;;;3.40;;
2866;SDS011;1441;48.886;8.728;2022-07-01T06:19:21;5.60;;;2.80;;
2866;SDS011;1441;48.886;8.728;2022-07-01T06:21:47;7.10;;;3.90;;
2866;SDS011;1441;48.886;8.728;2022-07-01T06:24:13;4.63;;;3.40;;
2866;SDS011;1441;48.886;8.728;2022-07-01T06:26:39;8.40;;;3.60;;
2866;SDS011;1441;48.886;8.728;2022-07-01T06:29:05;8.80;;;3.70;;
2866;SDS011;1441;48.886;8.728;2022-07-01T06:31:31;4.93;;;3.67;;
2866;SDS011;1441;48.886;8.728;2022-07-01T06:34:00;5.30;;;3.50;;
2866;SDS011;1441;48.886;8.728;2022-07-01T06:36:25;3.70;;;3.40;;
2866;SDS011;1441;48.886;8.728;2022-07-01T06:38:51;6.10;;;3.00;;
2866;SDS011;1441;48.886;8.728;2022-07-01T06:41:17;3.57;;;3.17;;
2866;SDS011;1441;48.886;8.728;2022-07-01T06:43:52;5.60;;;3.27;;
2866;SDS011;1441;48.886;8.728;2022-07-01T06:46:21;11.87;;;3.47;;
2866;SDS011;1441;48.886;8.728;2022-07-01T06:48:47;4.83;;;3.00;;
2866;SDS011;1441;48.886;8.728;2022-07-01T06:51:13;4.27;;;2.93;;
2866;SDS011;1441;48.886;8.728;2022-07-01T06:53:38;9.43;;;3.27;;
2866;SDS011;1441;48.886;8.728;2022-07-01T06:56:04;2.70;;;2.50;;
2866;SDS011;1441;48.886;8.728;2022-07-01T06:58:30;5.23;;;2.70;;
2866;SDS011;1441;48.886;8.728;2022-07-01T07:00:56;3.03;;;2.77;;
2866;SDS011;1441;48.886;8.728;2022-07-01T07:03:22;8.00;;;2.70;;
2866;SDS011;1441;48.886;8.728;2022-07-01T07:05:48;2.73;;;2.53;;
2866;SDS011;1441;48.886;8.728;2022-07-01T07:08:13;2.40;;;2.20;;
2866;SDS011;1441;48.886;8.728;2022-07-01T07:10:39;3.67;;;2.50;;
2866;SDS011;1441;48.886;8.728;2022-07-01T07:13:04;2.67;;;2.47;;
2866;SDS011;1441;48.886;8.728;2022-07-01T07:15:30;2.37;;;2.27;;
2866;SDS011;1441;48.886;8.728;2022-07-01T07:17:56;2.23;;;2.13;;
2866;SDS011;1441;48.886;8.728;2022-07-01T07:20:22;7.50;;;2.53;;
2866;SDS011;1441;48.886;8.728;2022-07-01T07:22:51;4.03;;;2.80;;
2866;SDS011;1441;48.886;8.728;2022-07-01T07:25:17;2.40;;;2.20;;
2866;SDS011;1441;48.886;8.728;2022-07-01T07:27:43;2.53;;;2.40;;
2866;SDS011;1441;48.886;8.728;2022-07-01T07:30:14;2.30;;;2.10;;
2866;SDS011;1441;48.886;8.728;2022-07-01T07:32:41;6.70;;;3.30;;
2866;SDS011;1441;48.886;8.728;2022-07-01T07:35:07;2.97;;;2.67;;
2866;SDS011;1441;48.886;8.728;2022-07-01T07:37:33;2.60;;;2.40;;
2866;SDS011;1441;48.886;8.728;2022-07-01T07:39:59;4.10;;;2.13;;
2866;SDS011;1441;48.886;8.728;2022-07-01T07:42:26;2.83;;;2.10;;
2866;SDS011;1441;48.886;8.728;2022-07-01T07:44:52;5.00;;;2.73;;
2866;SDS011;1441;48.886;8.728;2022-07-01T07:47:18;3.83;;;2.10;;
2866;SDS011;1441;48.886;8.728;2022-07-01T07:49:44;1.80;;;1.70;;
2866;SDS011;1441;48.886;8.728;2022-07-01T07:52:09;6.73;;;2.20;;
2866;SDS011;1441;48.886;8.728;2022-07-01T07:54:35;2.47;;;1.50;;
2866;SDS011;1441;48.886;8.728;2022-07-01T07:57:00;3.70;;;1.63;;
2866;SDS011;1441;48.886;8.728;2022-07-01T07:59:26;2.83;;;1.80;;
2866;SDS011;1441;48.886;8.728;2022-07-01T08:01:52;1.80;;;1.70;;
2866;SDS011;1441;48.886;8.728;2022-07-01T08:04:17;1.63;;;1.53;;
2866;SDS011;1441;48.886;8.728;2022-07-01T08:06:43;3.33;;;1.97;;
2866;SDS011;1441;48.886;8.728;2022-07-01T08:09:08;2.70;;;1.87;;
2866;SDS011;1441;48.886;8.728;2022-07-01T08:11:34;2.97;;;1.50;;
2866;SDS011;1441;48.886;8.728;2022-07-01T08:14:00;2.00;;;1.30;;
2866;SDS011;1441;48.886;8.728;2022-07-01T08:16:25;2.50;;;1.33;;
2866;SDS011;1441;48.886;8.728;2022-07-01T08:18:51;1.77;;;1.60;;
2866;SDS011;1441;48.886;8.728;2022-07-01T08:21:17;1.67;;;1.57;;
2866;SDS011;1441;48.886;8.728;2022-07-01T08:23:42;1.50;;;1.40;;
2866;SDS011;1441;48.886;8.728;2022-07-01T08:26:08;2.37;;;1.60;;
2866;SDS011;1441;48.886;8.728;2022-07-01T08:28:36;2.53;;;1.53;;
2866;SDS011;1441;48.886;8.728;2022-07-01T08:31:02;1.30;;;1.20;;
2866;SDS011;1441;48.886;8.728;2022-07-01T08:33:28;1.90;;;1.57;;
2866;SDS011;1441;48.886;8.728;2022-07-01T08:35:53;3.07;;;1.47;;
2866;SDS011;1441;48.886;8.728;2022-07-01T08:38:19;1.40;;;1.30;;
2866;SDS011;1441;48.886;8.728;2022-07-01T08:40:44;1.80;;;1.00;;
2866;SDS011;1441;48.886;8.728;2022-07-01T08:43:10;1.90;;;1.10;;
2866;SDS011;1441;48.886;8.728;2022-07-01T08:45:36;1.10;;;1.10;;
2866;SDS011;1441;48.886;8.728;2022-07-01T08:48:03;1.23;;;1.23;;
2866;SDS011;1441;48.886;8.728;2022-07-01T08:50:30;1.63;;;1.53;;
2866;SDS011;1441;48.886;8.728;2022-07-01T08:52:58;1.67;;;1.57;;
2866;SDS011;1441;48.886;8.728;2022-07-01T08:55:24;2.30;;;1.57;;
2866;SDS011;1441;48.886;8.728;2022-07-01T08:57:52;1.80;;;1.63;;
2866;SDS011;1441;48.886;8.728;2022-07-01T09:00:18;1.67;;;1.57;;
2866;SDS011;1441;48.886;8.728;2022-07-01T09:02:54;1.80;;;1.47;;
2866;SDS011;1441;48.886;8.728;2022-07-01T09:05:22;1.50;;;1.40;;
2866;SDS011;1441;48.886;8.728;2022-07-01T09:07:49;2.40;;;1.30;;
2866;SDS011;1441;48.886;8.728;2022-07-01T09:10:23;2.03;;;1.60;;
2866;SDS011;1441;48.886;8.728;2022-07-01T09:12:49;6.10;;;1.57;;
2866;SDS011;1441;48.886;8.728;2022-07-01T09:15:30;1.67;;;1.23;;
2866;SDS011;1441;48.886;8.728;2022-07-01T09:18:03;3.13;;;1.87;;
2866;SDS011;1441;48.886;8.728;2022-07-01T09:20:31;1.30;;;1.20;;
2866;SDS011;1441;48.886;8.728;2022-07-01T09:25:28;1.23;;;1.13;;
2866;SDS011;1441;48.886;8.728;2022-07-01T09:30:31;1.80;;;1.53;;
2866;SDS011;1441;48.886;8.728;2022-07-01T09:35:43;1.20;;;1.20;;
2866;SDS011;1441;48.886;8.728;2022-07-01T09:38:12;2.27;;;1.50;;
2866;SDS011;1441;48.886;8.728;2022-07-01T09:43:42;1.97;;;1.20;;
2866;SDS011;1441;48.886;8.728;2022-07-01T09:46:09;2.00;;;1.20;;
2866;SDS011;1441;48.886;8.728;2022-07-01T09:51:01;2.43;;;1.03;;
2866;SDS011;1441;48.886;8.728;2022-07-01T09:53:29;1.17;;;1.00;;
2866;SDS011;1441;48.886;8.728;2022-07-01T09:55:55;5.63;;;1.00;;
2866;SDS011;1441;48.886;8.728;2022-07-01T09:58:21;1.80;;;0.70;;
2866;SDS011;1441;48.886;8.728;2022-07-01T10:00:47;3.00;;;0.93;;
2866;SDS011;1441;48.886;8.728;2022-07-01T10:03:13;2.53;;;1.43;;
2866;SDS011;1441;48.886;8.728;2022-07-01T10:05:40;0.80;;;0.80;;
2866;SDS011;1441;48.886;8.728;2022-07-01T10:10:53;0.80;;;0.80;;
2866;SDS011;1441;48.886;8.728;2022-07-01T10:13:30;1.23;;;1.00;;
2866;SDS011;1441;48.886;8.728;2022-07-01T10:15:58;1.77;;;0.80;;
2866;SDS011;1441;48.886;8.728;2022-07-01T10:18:26;2.30;;;1.00;;
2866;SDS011;1441;48.886;8.728;2022-07-01T10:20:53;1.00;;;0.80;;
2866;SDS011;1441;48.886;8.728;2022-07-01T10:23:21;0.80;;;0.70;;
2866;SDS011;1441;48.886;8.728;2022-07-01T10:25:52;0.60;;;0.60;;
2866;SDS011;1441;48.886;8.728;2022-07-01T10:30:48;1.97;;;0.77;;
2866;SDS011;1441;48.886;8.728;2022-07-01T10:33:31;1.60;;;1.30;;
2866;SDS011;1441;48.886;8.728;2022-07-01T10:36:11;4.33;;;1.07;;
2866;SDS011;1441;48.886;8.728;2022-07-01T10:41:35;1.70;;;1.17;;
2866;SDS011;1441;48.886;8.728;2022-07-01T10:44:04;1.87;;;1.10;;
2866;SDS011;1441;48.886;8.728;2022-07-01T10:49:19;1.00;;;1.00;;
2866;SDS011;1441;48.886;8.728;2022-07-01T10:59:40;4.87;;;1.20;;
2866;SDS011;1441;48.886;8.728;2022-07-01T11:02:16;1.03;;;1.00;;
2866;SDS011;1441;48.886;8.728;2022-07-01T11:04:46;0.80;;;0.80;;
2866;SDS011;1441;48.886;8.728;2022-07-01T11:07:13;2.70;;;1.23;;
2866;SDS011;1441;48.886;8.728;2022-07-01T11:09:39;2.57;;;1.10;;
2866;SDS011;1441;48.886;8.728;2022-07-01T11:12:05;2.00;;;1.27;;
2866;SDS011;1441;48.886;8.728;2022-07-01T11:14:33;1.80;;;0.90;;
2866;SDS011;1441;48.886;8.728;2022-07-01T11:17:01;1.13;;;0.90;;
2866;SDS011;1441;48.886;8.728;2022-07-01T11:19:27;1.33;;;1.23;;
2866;SDS011;1441;48.886;8.728;2022-07-01T11:21:53;3.90;;;0.80;;
2866;SDS011;1441;48.886;8.728;2022-07-01T11:24:19;1.33;;;1.23;;
2866;SDS011;1441;48.886;8.728;2022-07-01T11:26:46;1.07;;;0.97;;
2866;SDS011;1441;48.886;8.728;2022-07-01T11:29:12;1.47;;;1.13;;
2866;SDS011;1441;48.886;8.728;2022-07-01T11:31:39;2.87;;;1.30;;
2866;SDS011;1441;48.886;8.728;2022-07-01T11:34:05;0.80;;;0.77;;
2866;SDS011;1441;48.886;8.728;2022-07-01T11:36:32;1.50;;;1.10;;
2866;SDS011;1441;48.886;8.728;2022-07-01T11:39:20;1.53;;;1.10;;
2866;SDS011;1441;48.886;8.728;2022-07-01T11:41:55;3.60;;;0.90;;
2866;SDS011;1441;48.886;8.728;2022-07-01T11:44:42;5.63;;;1.23;;
2866;SDS011;1441;48.886;8.728;2022-07-01T11:47:09;1.63;;;1.03;;
2866;SDS011;1441;48.886;8.728;2022-07-01T11:49:47;6.43;;;1.10;;
2866;SDS011;1441;48.886;8.728;2022-07-01T11:52:13;2.60;;;1.20;;
2866;SDS011;1441;48.886;8.728;2022-07-01T11:54:41;1.60;;;1.00;;
2866;SDS011;1441;48.886;8.728;2022-07-01T11:57:12;1.10;;;1.00;;
2866;SDS011;1441;48.886;8.728;2022-07-01T11:59:39;1.93;;;1.13;;
2866;SDS011;1441;48.886;8.728;2022-07-01T12:02:06;2.17;;;1.20;;
2866;SDS011;1441;48.886;8.728;2022-07-01T12:04:33;1.73;;;1.20;;
2866;SDS011;1441;48.886;8.728;2022-07-01T12:06:59;2.93;;;1.27;;
2866;SDS011;1441;48.886;8.728;2022-07-01T12:09:25;1.87;;;1.00;;
2866;SDS011;1441;48.886;8.728;2022-07-01T12:11:52;3.50;;;1.17;;
2866;SDS011;1441;48.886;8.728;2022-07-01T12:14:21;1.00;;;1.00;;
2866;SDS011;1441;48.886;8.728;2022-07-01T12:16:50;3.33;;;1.00;;
2866;SDS011;1441;48.886;8.728;2022-07-01T12:19:18;3.13;;;1.30;;
2866;SDS011;1441;48.886;8.728;2022-07-01T12:21:50;1.20;;;0.90;;
2866;SDS011;1441;48.886;8.728;2022-07-01T12:24:17;1.70;;;0.93;;
2866;SDS011;1441;48.886;8.728;2022-07-01T12:29:24;1.00;;;0.80;;
2866;SDS011;1441;48.886;8.728;2022-07-01T12:34:20;1.03;;;0.90;;
2866;SDS011;1441;48.886;8.728;2022-07-01T12:36:49;1.83;;;1.13;;
2866;SDS011;1441;48.886;8.728;2022-07-01T12:39:15;0.97;;;0.93;;
2866;SDS011;1441;48.886;8.728;2022-07-01T12:41:43;2.50;;;1.03;;
2866;SDS011;1441;48.886;8.728;2022-07-01T12:44:25;1.93;;;0.77;;
2866;SDS011;1441;48.886;8.728;2022-07-01T12:46:53;1.27;;;0.70;;
2866;SDS011;1441;48.886;8.728;2022-07-01T12:49:22;1.10;;;1.00;;
2866;SDS011;1441;48.886;8.728;2022-07-01T12:51:50;1.77;;;0.83;;
2866;SDS011;1441;48.886;8.728;2022-07-01T12:54:32;0.80;;;0.60;;
2866;SDS011;1441;48.886;8.728;2022-07-01T12:57:00;4.37;;;0.80;;
2866;SDS011;1441;48.886;8.728;2022-07-01T12:59:26;2.63;;;0.90;;
2866;SDS011;1441;48.886;8.728;2022-07-01T13:01:52;1.33;;;0.90;;
2866;SDS011;1441;48.886;8.728;2022-07-01T13:04:25;1.40;;;0.87;;
2866;SDS011;1441;48.886;8.728;2022-07-01T13:06:52;0.70;;;0.70;;
2866;SDS011;1441;48.886;8.728;2022-07-01T13:09:18;0.90;;;0.80;;
2866;SDS011;1441;48.886;8.728;2022-07-01T13:11:44;2.60;;;0.90;;
2866;SDS011;1441;48.886;8.728;2022-07-01T13:14:09;2.53;;;0.70;;
2866;SDS011;1441;48.886;8.728;2022-07-01T13:16:35;0.97;;;0.73;;
2866;SDS011;1441;48.886;8.728;2022-07-01T13:19:01;1.90;;;0.70;;
2866;SDS011;1441;48.886;8.728;2022-07-01T13:21:27;1.80;;;0.90;;
2866;SDS011;1441;48.886;8.728;2022-07-01T13:23:54;2.57;;;0.70;;
2866;SDS011;1441;48.886;8.728;2022-07-01T13:26:20;0.87;;;0.87;;
2866;SDS011;1441;48.886;8.728;2022-07-01T13:28:45;2.20;;;0.60;;
2866;SDS011;1441;48.886;8.728;2022-07-01T13:31:11;0.80;;;0.80;;
2866;SDS011;1441;48.886;8.728;2022-07-01T13:33:37;0.70;;;0.70;;
2866;SDS011;1441;48.886;8.728;2022-07-01T13:36:03;2.00;;;0.80;;
2866;SDS011;1441;48.886;8.728;2022-07-01T13:38:29;1.17;;;0.60;;
2866;SDS011;1441;48.886;8.728;2022-07-01T13:40:55;0.97;;;0.80;;
2866;SDS011;1441;48.886;8.728;2022-07-01T13:43:20;0.80;;;0.60;;
2866;SDS011;1441;48.886;8.728;2022-07-01T13:45:46;3.20;;;1.03;;
2866;SDS011;1441;48.886;8.728;2022-07-01T13:48:12;0.83;;;0.57;;
2866;SDS011;1441;48.886;8.728;2022-07-01T13:50:37;1.20;;;0.90;;
2866;SDS011;1441;48.886;8.728;2022-07-01T13:53:03;1.97;;;0.60;;
2866;SDS011;1441;48.886;8.728;2022-07-01T13:55:29;1.03;;;0.60;;
2866;SDS011;1441;48.886;8.728;2022-07-01T13:57:54;0.90;;;0.63;;
2866;SDS011;1441;48.886;8.728;2022-07-01T14:00:20;0.70;;;0.70;;
2866;SDS011;1441;48.886;8.728;2022-07-01T14:02:45;2.00;;;0.60;;
2866;SDS011;1441;48.886;8.728;2022-07-01T14:05:11;4.00;;;0.67;;
2866;SDS011;1441;48.886;8.728;2022-07-01T14:07:37;0.70;;;0.70;;
2866;SDS011;1441;48.886;8.728;2022-07-01T14:10:03;0.50;;;0.50;;
2866;SDS011;1441;48.886;8.728;2022-07-01T14:12:29;1.27;;;0.60;;
2866;SDS011;1441;48.886;8.728;2022-07-01T14:14:55;0.83;;;0.70;;
2866;SDS011;1441;48.886;8.728;2022-07-01T14:17:21;0.73;;;0.70;;
2866;SDS011;1441;48.886;8.728;2022-07-01T14:19:47;0.90;;;0.60;;
2866;SDS011;1441;48.886;8.728;2022-07-01T14:22:13;1.70;;;0.60;;
2866;SDS011;1441;48.886;8.728;2022-07-01T14:24:38;1.20;;;0.70;;
2866;SDS011;1441;48.886;8.728;2022-07-01T14:27:04;0.50;;;0.50;;
2866;SDS011;1441;48.886;8.728;2022-07-01T14:29:30;1.53;;;0.60;;
2866;SDS011;1441;48.886;8.728;2022-07-01T14:31:56;0.53;;;0.53;;
2866;SDS011;1441;48.886;8.728;2022-07-01T14:34:21;1.30;;;0.67;;
2866;SDS011;1441;48.886;8.728;2022-07-01T14:36:47;1.00;;;0.50;;
2866;SDS011;1441;48.886;8.728;2022-07-01T14:39:13;3.70;;;0.60;;
2866;SDS011;1441;48.886;8.728;2022-07-01T14:41:39;0.63;;;0.47;;
2866;SDS011;1441;48.886;8.728;2022-07-01T14:44:04;0.60;;;0.50;;
2866;SDS011;1441;48.886;8.728;2022-07-01T14:46:30;0.83;;;0.50;;
2866;SDS011;1441;48.886;8.728;2022-07-01T14:48:56;1.07;;;0.70;;
2866;SDS011;1441;48.886;8.728;2022-07-01T14:51:21;1.40;;;0.60;;
2866;SDS011;1441;48.886;8.728;2022-07-01T14:53:47;1.27;;;0.50;;
2866;SDS011;1441;48.886;8.728;2022-07-01T14:56:12;1.43;;;0.60;;
2866;SDS011;1441;48.886;8.728;2022-07-01T14:58:38;0.60;;;0.53;;
2866;SDS011;1441;48.886;8.728;2022-07-01T15:01:07;0.87;;;0.60;;
2866;SDS011;1441;48.886;8.728;2022-07-01T15:03:35;4.30;;;0.60;;
2866;SDS011;1441;48.886;8.728;2022-07-01T15:06:01;0.60;;;0.60;;
2866;SDS011;1441;48.886;8.728;2022-07-01T15:08:27;1.10;;;0.60;;
2866;SDS011;1441;48.886;8.728;2022-07-01T15:10:53;3.47;;;0.60;;
2866;SDS011;1441;48.886;8.728;2022-07-01T15:13:27;0.63;;;0.60;;
2866;SDS011;1441;48.886;8.728;2022-07-01T15:15:55;1.13;;;0.70;;
2866;SDS011;1441;48.886;8.728;2022-07-01T15:18:21;0.97;;;0.60;;
2866;SDS011;1441;48.886;8.728;2022-07-01T15:20:46;0.90;;;0.90;;
2866;SDS011;1441;48.886;8.728;2022-07-01T15:23:12;0.93;;;0.60;;
2866;SDS011;1441;48.886;8.728;2022-07-01T15:25:38;1.70;;;0.50;;
2866;SDS011;1441;48.886;8.728;2022-07-01T15:28:03;1.47;;;0.50;;
2866;SDS011;1441;48.886;8.728;2022-07-01T15:30:29;4.67;;;0.60;;
2866;SDS011;1441;48.886;8.728;2022-07-01T15:32:54;1.27;;;0.70;;
2866;SDS011;1441;48.886;8.728;2022-07-01T15:35:20;0.90;;;0.53;;
2866;SDS011;1441;48.886;8.728;2022-07-01T15:37:46;0.50;;;0.50;;
2866;SDS011;1441;48.886;8.728;2022-07-01T15:40:12;1.93;;;0.70;;
2866;SDS011;1441;48.886;8.728;2022-07-01T15:42:37;2.23;;;0.63;;
2866;SDS011;1441;48.886;8.728;2022-07-01T15:45:06;1.00;;;0.53;;
2866;SDS011;1441;48.886;8.728;2022-07-01T15:47:32;1.43;;;0.70;;
2866;SDS011;1441;48.886;8.728;2022-07-01T15:50:17;1.37;;;0.57;;